• Join FlightAware (Why Join?)
  • Login
  • US Flag 
02:19AM EST


 

Airport Tracker/Info


-or-


 

Live Flight TrackerFlight Track Log ✈ N960DL ✈ 02-May-2013 ✈ KATL - KGPT

Flight Track Log - Related Links

Times and Time Zones

All times are in EDT time to prevent confusion due to time zone crossing. See the N960DL flight status page for this flight to view local times or setup timezone preferences in your user account.

Time Position Orientation Groundspeed Altitude Reporting Facility
EDT Latitude Longitude Course Direction KTS MPH feet Rate Location/Type
11:49AM 33.6333 -84.4000 234° Southwest 169 194 2,300  Level Atlanta TRACON
11:50AM 33.6167 -84.3333 107° East 224 258 4,700 2,520 Climbing Atlanta TRACON
11:51AM 33.5667 -84.2833 140° Southeast 266 306 7,400 2,460 Climbing Atlanta TRACON
11:52AM 33.8001 -84.3426 270° West  Level FlightAware Approximate
11:53AM 33.8001 -84.4733 270° West  Level FlightAware Approximate
11:53AM 33.4558 -84.3325 200° South 255 293 12,000  Level Atlanta Center
11:54AM 33.7840 -84.5986 239° Southwest  Level FlightAware Approximate
11:54AM 33.4553 -84.4572 270° West 282 325 13,400  Level Atlanta Center
11:55AM 33.7196 -84.7037 234° Southwest  Level FlightAware Approximate
11:55AM 33.4569 -84.5942 271° West 371 427 15,100  Level Atlanta Center
11:56AM 33.4603 -84.7386 272° West 411 473 17,800 2,340 Climbing Atlanta Center
11:57AM 33.4658 -84.8806 273° West 435 501 19,800 1,920 Climbing Atlanta Center
11:58AM 33.4689 -85.0275 271° West 447 514 21,700 1,740 Climbing Atlanta Center
11:59AM 33.4717 -85.1819 271° West 447 514 23,300 1,740 Climbing Atlanta Center
12:00PM 33.4514 -85.3311 261° West 452 520 25,200 1,800 Climbing Atlanta Center
12:01PM 33.4022 -85.4522 244° Southwest 464 534 26,900 1,500 Climbing Atlanta Center
12:02PM 33.3069 -85.5650 225° Southwest 454 522 28,200 1,380 Climbing Atlanta Center
12:03PM 33.2178 -85.6775 227° Southwest 454 522 29,700 900 Climbing Atlanta Center
12:04PM 33.1328 -85.7928 229° Southwest 460 529 30,000 120 Climbing Atlanta Center
12:05PM 33.0456 -85.8975 225° Southwest 460 529 30,000  Level Atlanta Center
12:06PM 32.9583 -86.0094 227° Southwest 460 529 30,000  Level Atlanta Center
12:07PM 32.8708 -86.1214 227° Southwest 465 535 30,000  Level Atlanta Center
12:08PM 32.7811 -86.2328 226° Southwest 465 535 30,000  Level Atlanta Center
12:09PM 32.6917 -86.3417 226° Southwest 465 535 30,000  Level Atlanta Center
12:10PM 32.6058 -86.4503 227° Southwest 465 535 30,000  Level Atlanta Center
12:11PM 32.5181 -86.5614 227° Southwest 465 535 30,000  Level Atlanta Center
12:12PM 32.4322 -86.6744 228° Southwest 465 535 30,000  Level Atlanta Center
12:13PM 32.3381 -86.7797 223° Southwest 470 541 30,000  Level Atlanta Center
12:14PM 32.2500 -86.8900 227° Southwest 470 541 30,000  Level Atlanta Center
12:15PM 32.1619 -86.9978 226° Southwest 470 541 30,000  Level Atlanta Center
12:16PM 32.0781 -87.0978 225° Southwest 470 541 30,000  Level Atlanta Center
12:17PM 31.9900 -87.2050 226° Southwest 470 541 30,000  Level Atlanta Center
12:18PM 31.9017 -87.3119 226° Southwest 470 541 30,000  Level Atlanta Center
12:19PM 31.8064 -87.4356 228° Southwest 465 535 30,000 -780 Level Atlanta Center
12:21PM 31.6608 -87.6028 224° Southwest 460 529 28,000 -780 Descending Houston Center
12:22PM 31.5711 -87.7100 226° Southwest 461 531 28,000  Level Houston Center
12:23PM 31.4636 -87.8397 226° Southwest 464 534 28,000 -720 Level Houston Center
12:24PM 31.3739 -87.9478 226° Southwest 463 533 26,600 -1,860 Descending Houston Center
12:25PM 31.2872 -88.0528 226° Southwest 453 521 24,200 -1,260 Descending Houston Center
12:26PM 31.2039 -88.1503 225° Southwest 430 495 24,000 -840 Descending Houston Center
12:27PM 31.1208 -88.2469 225° Southwest 429 494 22,500 -2,040 Descending Houston Center
12:28PM 31.0264 -88.3572 225° Southwest 421 484 19,800 -2,400 Descending Houston Center
12:29PM 30.9486 -88.4458 224° Southwest 403 464 17,600 -2,220 Descending Houston Center
12:30PM 30.8728 -88.5328 225° Southwest 389 448 15,300 -2,280 Descending Houston Center
12:31PM 30.7994 -88.6178 225° Southwest 378 435 13,000 -2,040 Descending Houston Center
12:32PM 30.7161 -88.7156 225° Southwest 360 414 11,100 -1,260 Descending Houston Center
12:33PM 30.6597 -88.7861 227° Southwest 309 356 10,500 -1,140 Descending Houston Center
12:35PM 30.6253 -88.8714 245° Southwest 294 338 8,800 -1,740 Descending Houston Center
12:36PM 30.6028 -88.9658 255° West 289 333 6,900 -1,860 Descending Houston Center
12:37PM 30.6078 -89.0581 274° West 289 333 5,000 -1,800 Descending Houston Center
12:38PM 30.6083 -89.1475 270° West 282 325 3,200 -1,320 Descending Houston Center
12:39PM 30.5911 -89.2253 256° West 254 292 2,300 -600 Descending Houston Center
12:40PM 30.5503 -89.2453 203° Southwest 212 244 2,000 -300 Descending Houston Center